sensor_id;sensor_type;location;lat;lon;timestamp;P1;durP1;ratioP1;P2;durP2;ratioP2
9563;SDS011;4820;50.870;4.702;2024-01-30T00:01:55;5.28;;;3.92;;
9563;SDS011;4820;50.870;4.702;2024-01-30T00:04:21;4.53;;;3.75;;
9563;SDS011;4820;50.870;4.702;2024-01-30T00:06:46;4.95;;;3.63;;
9563;SDS011;4820;50.870;4.702;2024-01-30T00:09:13;6.78;;;4.07;;
9563;SDS011;4820;50.870;4.702;2024-01-30T00:11:39;4.22;;;3.50;;
9563;SDS011;4820;50.870;4.702;2024-01-30T00:14:05;4.70;;;3.88;;
9563;SDS011;4820;50.870;4.702;2024-01-30T00:16:31;4.57;;;3.67;;
9563;SDS011;4820;50.870;4.702;2024-01-30T00:18:57;5.03;;;3.80;;
9563;SDS011;4820;50.870;4.702;2024-01-30T00:21:23;4.20;;;3.60;;
9563;SDS011;4820;50.870;4.702;2024-01-30T00:23:49;5.20;;;3.83;;
9563;SDS011;4820;50.870;4.702;2024-01-30T00:26:14;6.07;;;3.80;;
9563;SDS011;4820;50.870;4.702;2024-01-30T00:28:41;5.00;;;3.60;;
9563;SDS011;4820;50.870;4.702;2024-01-30T00:31:07;4.63;;;3.63;;
9563;SDS011;4820;50.870;4.702;2024-01-30T00:33:35;4.63;;;3.55;;
9563;SDS011;4820;50.870;4.702;2024-01-30T00:36:00;5.55;;;3.78;;
9563;SDS011;4820;50.870;4.702;2024-01-30T00:38:26;5.40;;;3.70;;
9563;SDS011;4820;50.870;4.702;2024-01-30T00:40:52;5.75;;;3.92;;
9563;SDS011;4820;50.870;4.702;2024-01-30T00:43:17;8.48;;;4.07;;
9563;SDS011;4820;50.870;4.702;2024-01-30T00:45:43;4.57;;;3.58;;
9563;SDS011;4820;50.870;4.702;2024-01-30T00:48:09;4.68;;;3.72;;
9563;SDS011;4820;50.870;4.702;2024-01-30T00:50:35;3.92;;;3.50;;
9563;SDS011;4820;50.870;4.702;2024-01-30T00:53:01;4.15;;;3.72;;
9563;SDS011;4820;50.870;4.702;2024-01-30T00:55:26;6.43;;;3.60;;
9563;SDS011;4820;50.870;4.702;2024-01-30T00:57:52;5.15;;;3.58;;
9563;SDS011;4820;50.870;4.702;2024-01-30T01:00:18;5.28;;;3.67;;
9563;SDS011;4820;50.870;4.702;2024-01-30T01:02:46;4.35;;;3.40;;
9563;SDS011;4820;50.870;4.702;2024-01-30T01:05:11;4.80;;;3.67;;
9563;SDS011;4820;50.870;4.702;2024-01-30T01:07:37;5.45;;;4.07;;
9563;SDS011;4820;50.870;4.702;2024-01-30T01:10:05;5.55;;;3.65;;
9563;SDS011;4820;50.870;4.702;2024-01-30T01:12:31;5.25;;;3.70;;
9563;SDS011;4820;50.870;4.702;2024-01-30T01:14:57;5.10;;;3.97;;
9563;SDS011;4820;50.870;4.702;2024-01-30T01:17:23;5.75;;;3.90;;
9563;SDS011;4820;50.870;4.702;2024-01-30T01:19:49;4.55;;;3.83;;
9563;SDS011;4820;50.870;4.702;2024-01-30T01:22:15;5.47;;;4.00;;
9563;SDS011;4820;50.870;4.702;2024-01-30T01:24:42;5.25;;;3.53;;
9563;SDS011;4820;50.870;4.702;2024-01-30T01:27:08;4.97;;;3.58;;
9563;SDS011;4820;50.870;4.702;2024-01-30T01:29:35;4.68;;;3.45;;
9563;SDS011;4820;50.870;4.702;2024-01-30T01:34:31;5.00;;;3.88;;
9563;SDS011;4820;50.870;4.702;2024-01-30T01:36:56;4.93;;;3.63;;
9563;SDS011;4820;50.870;4.702;2024-01-30T01:39:23;4.35;;;3.60;;
9563;SDS011;4820;50.870;4.702;2024-01-30T01:41:49;4.47;;;3.55;;
9563;SDS011;4820;50.870;4.702;2024-01-30T01:44:15;5.82;;;4.10;;
9563;SDS011;4820;50.870;4.702;2024-01-30T01:46:40;4.03;;;3.40;;
9563;SDS011;4820;50.870;4.702;2024-01-30T01:49:06;4.10;;;3.53;;
9563;SDS011;4820;50.870;4.702;2024-01-30T01:51:33;6.68;;;3.75;;
9563;SDS011;4820;50.870;4.702;2024-01-30T01:54:04;4.18;;;3.47;;
9563;SDS011;4820;50.870;4.702;2024-01-30T01:56:30;5.22;;;3.67;;
9563;SDS011;4820;50.870;4.702;2024-01-30T01:59:07;4.93;;;3.70;;
9563;SDS011;4820;50.870;4.702;2024-01-30T02:01:33;5.22;;;3.72;;
9563;SDS011;4820;50.870;4.702;2024-01-30T02:04:02;4.57;;;3.55;;
9563;SDS011;4820;50.870;4.702;2024-01-30T02:06:29;4.07;;;3.65;;
9563;SDS011;4820;50.870;4.702;2024-01-30T02:08:55;4.25;;;3.83;;
9563;SDS011;4820;50.870;4.702;2024-01-30T02:11:22;5.28;;;3.50;;
9563;SDS011;4820;50.870;4.702;2024-01-30T02:13:48;4.88;;;3.85;;
9563;SDS011;4820;50.870;4.702;2024-01-30T02:16:14;4.30;;;3.42;;
9563;SDS011;4820;50.870;4.702;2024-01-30T02:18:40;5.68;;;4.00;;
9563;SDS011;4820;50.870;4.702;2024-01-30T02:21:10;6.55;;;3.60;;
9563;SDS011;4820;50.870;4.702;2024-01-30T02:23:37;3.92;;;3.42;;
9563;SDS011;4820;50.870;4.702;2024-01-30T02:26:05;4.18;;;3.42;;
9563;SDS011;4820;50.870;4.702;2024-01-30T02:28:31;6.45;;;3.72;;
9563;SDS011;4820;50.870;4.702;2024-01-30T02:30:57;4.10;;;3.67;;
9563;SDS011;4820;50.870;4.702;2024-01-30T02:33:22;5.20;;;3.65;;
9563;SDS011;4820;50.870;4.702;2024-01-30T02:35:48;4.93;;;3.65;;
9563;SDS011;4820;50.870;4.702;2024-01-30T02:38:15;4.53;;;3.70;;
9563;SDS011;4820;50.870;4.702;2024-01-30T02:40:41;5.95;;;3.60;;
9563;SDS011;4820;50.870;4.702;2024-01-30T02:43:07;6.15;;;3.67;;
9563;SDS011;4820;50.870;4.702;2024-01-30T02:45:33;5.90;;;3.55;;
9563;SDS011;4820;50.870;4.702;2024-01-30T02:47:59;4.97;;;3.60;;
9563;SDS011;4820;50.870;4.702;2024-01-30T02:50:25;5.40;;;4.03;;
9563;SDS011;4820;50.870;4.702;2024-01-30T02:52:50;6.22;;;4.22;;
9563;SDS011;4820;50.870;4.702;2024-01-30T02:55:16;6.75;;;4.65;;
9563;SDS011;4820;50.870;4.702;2024-01-30T02:57:45;6.82;;;4.70;;
9563;SDS011;4820;50.870;4.702;2024-01-30T03:00:11;6.10;;;4.35;;
9563;SDS011;4820;50.870;4.702;2024-01-30T03:02:38;6.97;;;4.80;;
9563;SDS011;4820;50.870;4.702;2024-01-30T03:05:05;7.97;;;4.80;;
9563;SDS011;4820;50.870;4.702;2024-01-30T03:07:31;7.05;;;5.10;;
9563;SDS011;4820;50.870;4.702;2024-01-30T03:09:57;8.70;;;4.78;;
9563;SDS011;4820;50.870;4.702;2024-01-30T03:12:22;5.65;;;4.50;;
9563;SDS011;4820;50.870;4.702;2024-01-30T03:14:49;6.00;;;4.55;;
9563;SDS011;4820;50.870;4.702;2024-01-30T03:17:15;5.53;;;4.30;;
9563;SDS011;4820;50.870;4.702;2024-01-30T03:19:41;6.47;;;4.82;;
9563;SDS011;4820;50.870;4.702;2024-01-30T03:22:07;8.95;;;4.68;;
9563;SDS011;4820;50.870;4.702;2024-01-30T03:24:32;6.78;;;4.13;;
9563;SDS011;4820;50.870;4.702;2024-01-30T03:26:58;4.95;;;4.03;;
9563;SDS011;4820;50.870;4.702;2024-01-30T03:29:24;5.95;;;4.28;;
9563;SDS011;4820;50.870;4.702;2024-01-30T03:31:50;6.70;;;4.05;;
9563;SDS011;4820;50.870;4.702;2024-01-30T03:34:16;6.10;;;3.83;;
9563;SDS011;4820;50.870;4.702;2024-01-30T03:36:43;5.65;;;4.45;;
9563;SDS011;4820;50.870;4.702;2024-01-30T03:39:08;7.82;;;4.80;;
9563;SDS011;4820;50.870;4.702;2024-01-30T03:41:36;5.97;;;4.28;;
9563;SDS011;4820;50.870;4.702;2024-01-30T03:44:02;5.55;;;4.07;;
9563;SDS011;4820;50.870;4.702;2024-01-30T03:46:28;5.47;;;4.38;;
9563;SDS011;4820;50.870;4.702;2024-01-30T03:48:53;5.60;;;4.13;;
9563;SDS011;4820;50.870;4.702;2024-01-30T03:51:20;5.40;;;3.92;;
9563;SDS011;4820;50.870;4.702;2024-01-30T03:53:46;6.30;;;4.05;;
9563;SDS011;4820;50.870;4.702;2024-01-30T03:56:12;6.90;;;3.90;;
9563;SDS011;4820;50.870;4.702;2024-01-30T03:58:41;5.13;;;3.95;;
9563;SDS011;4820;50.870;4.702;2024-01-30T04:01:07;6.25;;;4.15;;
9563;SDS011;4820;50.870;4.702;2024-01-30T04:03:33;4.85;;;3.95;;
9563;SDS011;4820;50.870;4.702;2024-01-30T04:05:58;6.32;;;4.30;;
9563;SDS011;4820;50.870;4.702;2024-01-30T04:08:24;6.10;;;4.10;;
9563;SDS011;4820;50.870;4.702;2024-01-30T04:10:50;7.35;;;4.00;;
9563;SDS011;4820;50.870;4.702;2024-01-30T04:13:16;6.47;;;4.10;;
9563;SDS011;4820;50.870;4.702;2024-01-30T04:15:41;6.25;;;4.20;;
9563;SDS011;4820;50.870;4.702;2024-01-30T04:18:07;5.85;;;4.00;;
9563;SDS011;4820;50.870;4.702;2024-01-30T04:20:33;5.90;;;4.30;;
9563;SDS011;4820;50.870;4.702;2024-01-30T04:22:58;5.50;;;4.20;;
9563;SDS011;4820;50.870;4.702;2024-01-30T04:25:24;7.43;;;4.40;;
9563;SDS011;4820;50.870;4.702;2024-01-30T04:27:50;5.75;;;4.18;;
9563;SDS011;4820;50.870;4.702;2024-01-30T04:30:16;6.70;;;3.97;;
9563;SDS011;4820;50.870;4.702;2024-01-30T04:32:42;5.95;;;4.30;;
9563;SDS011;4820;50.870;4.702;2024-01-30T04:35:09;6.72;;;4.47;;
9563;SDS011;4820;50.870;4.702;2024-01-30T04:37:35;5.47;;;4.00;;
9563;SDS011;4820;50.870;4.702;2024-01-30T04:40:01;5.80;;;4.40;;
9563;SDS011;4820;50.870;4.702;2024-01-30T04:42:28;6.55;;;4.40;;
9563;SDS011;4820;50.870;4.702;2024-01-30T04:44:53;6.60;;;4.25;;
9563;SDS011;4820;50.870;4.702;2024-01-30T04:47:19;5.32;;;4.00;;
9563;SDS011;4820;50.870;4.702;2024-01-30T04:49:45;6.05;;;4.60;;
9563;SDS011;4820;50.870;4.702;2024-01-30T04:52:11;7.93;;;4.20;;
9563;SDS011;4820;50.870;4.702;2024-01-30T04:54:36;6.05;;;4.55;;
9563;SDS011;4820;50.870;4.702;2024-01-30T04:57:02;4.97;;;4.15;;
9563;SDS011;4820;50.870;4.702;2024-01-30T04:59:28;5.82;;;4.28;;
9563;SDS011;4820;50.870;4.702;2024-01-30T05:01:54;5.47;;;4.28;;
9563;SDS011;4820;50.870;4.702;2024-01-30T05:04:20;4.93;;;4.25;;
9563;SDS011;4820;50.870;4.702;2024-01-30T05:06:47;5.07;;;4.22;;
9563;SDS011;4820;50.870;4.702;2024-01-30T05:09:12;5.78;;;4.30;;
9563;SDS011;4820;50.870;4.702;2024-01-30T05:11:38;7.30;;;4.55;;
9563;SDS011;4820;50.870;4.702;2024-01-30T05:14:05;5.05;;;4.25;;
9563;SDS011;4820;50.870;4.702;2024-01-30T05:16:31;5.60;;;4.32;;
9563;SDS011;4820;50.870;4.702;2024-01-30T05:18:58;7.30;;;4.57;;
9563;SDS011;4820;50.870;4.702;2024-01-30T05:21:24;5.75;;;4.43;;
9563;SDS011;4820;50.870;4.702;2024-01-30T05:23:50;7.72;;;4.53;;
9563;SDS011;4820;50.870;4.702;2024-01-30T05:26:16;7.20;;;4.32;;
9563;SDS011;4820;50.870;4.702;2024-01-30T05:28:44;5.10;;;3.92;;
9563;SDS011;4820;50.870;4.702;2024-01-30T05:31:09;5.75;;;4.15;;
9563;SDS011;4820;50.870;4.702;2024-01-30T05:33:36;5.78;;;4.50;;
9563;SDS011;4820;50.870;4.702;2024-01-30T05:36:02;7.85;;;4.20;;
9563;SDS011;4820;50.870;4.702;2024-01-30T05:38:29;5.05;;;3.95;;
9563;SDS011;4820;50.870;4.702;2024-01-30T05:40:55;4.88;;;4.20;;
9563;SDS011;4820;50.870;4.702;2024-01-30T05:43:24;6.40;;;3.92;;
9563;SDS011;4820;50.870;4.702;2024-01-30T05:45:51;5.20;;;4.07;;
9563;SDS011;4820;50.870;4.702;2024-01-30T05:48:17;5.00;;;4.15;;
9563;SDS011;4820;50.870;4.702;2024-01-30T05:50:43;5.53;;;4.30;;
9563;SDS011;4820;50.870;4.702;2024-01-30T05:53:11;5.07;;;4.20;;
9563;SDS011;4820;50.870;4.702;2024-01-30T05:55:37;5.82;;;4.40;;
9563;SDS011;4820;50.870;4.702;2024-01-30T05:58:03;7.63;;;4.47;;
9563;SDS011;4820;50.870;4.702;2024-01-30T06:00:29;5.13;;;4.00;;
9563;SDS011;4820;50.870;4.702;2024-01-30T06:02:55;7.82;;;4.28;;
9563;SDS011;4820;50.870;4.702;2024-01-30T06:05:22;5.53;;;4.28;;
9563;SDS011;4820;50.870;4.702;2024-01-30T06:07:47;6.35;;;4.40;;
9563;SDS011;4820;50.870;4.702;2024-01-30T06:10:13;6.15;;;4.15;;
9563;SDS011;4820;50.870;4.702;2024-01-30T06:12:39;6.88;;;4.28;;
9563;SDS011;4820;50.870;4.702;2024-01-30T06:15:05;7.05;;;4.35;;
9563;SDS011;4820;50.870;4.702;2024-01-30T06:17:31;5.28;;;4.15;;
9563;SDS011;4820;50.870;4.702;2024-01-30T06:19:57;6.47;;;4.13;;
9563;SDS011;4820;50.870;4.702;2024-01-30T06:22:24;5.70;;;4.15;;
9563;SDS011;4820;50.870;4.702;2024-01-30T06:24:50;6.63;;;3.97;;
9563;SDS011;4820;50.870;4.702;2024-01-30T06:27:16;5.47;;;4.32;;
9563;SDS011;4820;50.870;4.702;2024-01-30T06:29:43;5.72;;;4.45;;
9563;SDS011;4820;50.870;4.702;2024-01-30T06:32:08;6.20;;;4.57;;
9563;SDS011;4820;50.870;4.702;2024-01-30T06:34:35;5.65;;;4.38;;
9563;SDS011;4820;50.870;4.702;2024-01-30T06:37:03;5.90;;;4.28;;
9563;SDS011;4820;50.870;4.702;2024-01-30T06:39:29;7.10;;;4.80;;
9563;SDS011;4820;50.870;4.702;2024-01-30T06:41:55;6.75;;;4.55;;
9563;SDS011;4820;50.870;4.702;2024-01-30T06:44:21;8.57;;;5.13;;
9563;SDS011;4820;50.870;4.702;2024-01-30T06:46:47;8.15;;;4.90;;
9563;SDS011;4820;50.870;4.702;2024-01-30T06:49:13;6.30;;;4.93;;
9563;SDS011;4820;50.870;4.702;2024-01-30T06:51:39;6.65;;;5.07;;
9563;SDS011;4820;50.870;4.702;2024-01-30T06:54:05;7.63;;;5.22;;
9563;SDS011;4820;50.870;4.702;2024-01-30T06:56:31;7.20;;;4.70;;
9563;SDS011;4820;50.870;4.702;2024-01-30T06:58:58;8.10;;;5.40;;
9563;SDS011;4820;50.870;4.702;2024-01-30T07:01:28;8.23;;;5.05;;
9563;SDS011;4820;50.870;4.702;2024-01-30T07:03:54;9.35;;;5.47;;
9563;SDS011;4820;50.870;4.702;2024-01-30T07:06:20;8.50;;;5.18;;
9563;SDS011;4820;50.870;4.702;2024-01-30T07:08:48;11.40;;;5.55;;
9563;SDS011;4820;50.870;4.702;2024-01-30T07:11:21;8.63;;;5.75;;
9563;SDS011;4820;50.870;4.702;2024-01-30T07:13:49;8.02;;;5.30;;
9563;SDS011;4820;50.870;4.702;2024-01-30T07:16:15;8.93;;;5.63;;
9563;SDS011;4820;50.870;4.702;2024-01-30T07:18:41;11.18;;;6.22;;
9563;SDS011;4820;50.870;4.702;2024-01-30T07:21:08;12.48;;;6.38;;
9563;SDS011;4820;50.870;4.702;2024-01-30T07:23:35;11.38;;;5.97;;
9563;SDS011;4820;50.870;4.702;2024-01-30T07:26:05;8.43;;;5.30;;
9563;SDS011;4820;50.870;4.702;2024-01-30T07:28:31;8.32;;;5.18;;
9563;SDS011;4820;50.870;4.702;2024-01-30T07:30:59;10.50;;;5.93;;
9563;SDS011;4820;50.870;4.702;2024-01-30T07:33:31;9.57;;;5.93;;
9563;SDS011;4820;50.870;4.702;2024-01-30T07:35:57;9.05;;;7.07;;
9563;SDS011;4820;50.870;4.702;2024-01-30T07:38:23;8.98;;;6.63;;
9563;SDS011;4820;50.870;4.702;2024-01-30T07:40:49;8.38;;;5.70;;
9563;SDS011;4820;50.870;4.702;2024-01-30T07:43:16;7.18;;;5.40;;
9563;SDS011;4820;50.870;4.702;2024-01-30T07:48:12;13.07;;;5.75;;
9563;SDS011;4820;50.870;4.702;2024-01-30T07:50:37;9.65;;;5.60;;
9563;SDS011;4820;50.870;4.702;2024-01-30T07:53:04;11.15;;;5.72;;
9563;SDS011;4820;50.870;4.702;2024-01-30T07:55:30;8.50;;;5.47;;
9563;SDS011;4820;50.870;4.702;2024-01-30T07:57:58;8.20;;;5.75;;
9563;SDS011;4820;50.870;4.702;2024-01-30T08:00:25;7.85;;;5.13;;
9563;SDS011;4820;50.870;4.702;2024-01-30T08:02:51;7.38;;;5.18;;
9563;SDS011;4820;50.870;4.702;2024-01-30T08:05:19;7.35;;;4.95;;
9563;SDS011;4820;50.870;4.702;2024-01-30T08:07:47;7.72;;;5.07;;
9563;SDS011;4820;50.870;4.702;2024-01-30T08:10:13;7.65;;;5.55;;
9563;SDS011;4820;50.870;4.702;2024-01-30T08:12:39;7.22;;;5.28;;
9563;SDS011;4820;50.870;4.702;2024-01-30T08:15:05;8.38;;;4.93;;
9563;SDS011;4820;50.870;4.702;2024-01-30T08:17:31;7.32;;;4.38;;
9563;SDS011;4820;50.870;4.702;2024-01-30T08:19:57;5.68;;;5.07;;
9563;SDS011;4820;50.870;4.702;2024-01-30T08:22:25;7.13;;;4.82;;
9563;SDS011;4820;50.870;4.702;2024-01-30T08:24:50;9.10;;;5.13;;
9563;SDS011;4820;50.870;4.702;2024-01-30T08:27:17;6.97;;;4.78;;
9563;SDS011;4820;50.870;4.702;2024-01-30T08:29:43;6.60;;;4.88;;
9563;SDS011;4820;50.870;4.702;2024-01-30T08:32:08;5.82;;;4.47;;
9563;SDS011;4820;50.870;4.702;2024-01-30T08:34:34;7.75;;;4.95;;
9563;SDS011;4820;50.870;4.702;2024-01-30T08:37:00;5.57;;;4.95;;
9563;SDS011;4820;50.870;4.702;2024-01-30T08:39:25;7.10;;;4.95;;
9563;SDS011;4820;50.870;4.702;2024-01-30T08:41:51;8.07;;;4.72;;
9563;SDS011;4820;50.870;4.702;2024-01-30T08:44:17;8.48;;;4.93;;
9563;SDS011;4820;50.870;4.702;2024-01-30T08:46:43;5.47;;;4.80;;
9563;SDS011;4820;50.870;4.702;2024-01-30T08:49:13;7.55;;;5.03;;
9563;SDS011;4820;50.870;4.702;2024-01-30T08:51:41;5.55;;;4.47;;
9563;SDS011;4820;50.870;4.702;2024-01-30T08:54:07;5.43;;;4.85;;
9563;SDS011;4820;50.870;4.702;2024-01-30T08:56:32;8.60;;;5.50;;
9563;SDS011;4820;50.870;4.702;2024-01-30T08:58:58;7.28;;;5.25;;
9563;SDS011;4820;50.870;4.702;2024-01-30T09:01:24;7.53;;;5.10;;
9563;SDS011;4820;50.870;4.702;2024-01-30T09:03:50;7.22;;;5.00;;
9563;SDS011;4820;50.870;4.702;2024-01-30T09:06:16;7.45;;;4.82;;
9563;SDS011;4820;50.870;4.702;2024-01-30T09:08:42;7.38;;;5.00;;
9563;SDS011;4820;50.870;4.702;2024-01-30T09:11:14;8.40;;;5.28;;
9563;SDS011;4820;50.870;4.702;2024-01-30T09:13:40;7.28;;;4.95;;
9563;SDS011;4820;50.870;4.702;2024-01-30T09:16:06;8.30;;;5.00;;
9563;SDS011;4820;50.870;4.702;2024-01-30T09:18:32;6.03;;;4.47;;
9563;SDS011;4820;50.870;4.702;2024-01-30T09:20:58;10.48;;;5.30;;
9563;SDS011;4820;50.870;4.702;2024-01-30T09:23:24;8.23;;;5.63;;
9563;SDS011;4820;50.870;4.702;2024-01-30T09:25:52;6.18;;;4.60;;
9563;SDS011;4820;50.870;4.702;2024-01-30T09:28:17;7.68;;;5.10;;
9563;SDS011;4820;50.870;4.702;2024-01-30T09:30:43;7.47;;;5.25;;
9563;SDS011;4820;50.870;4.702;2024-01-30T09:33:09;8.82;;;5.65;;
9563;SDS011;4820;50.870;4.702;2024-01-30T09:35:35;9.90;;;6.93;;
9563;SDS011;4820;50.870;4.702;2024-01-30T09:38:02;10.50;;;6.22;;
9563;SDS011;4820;50.870;4.702;2024-01-30T09:40:27;12.70;;;5.97;;
9563;SDS011;4820;50.870;4.702;2024-01-30T09:42:53;9.23;;;5.20;;
9563;SDS011;4820;50.870;4.702;2024-01-30T09:45:20;6.72;;;4.95;;
9563;SDS011;4820;50.870;4.702;2024-01-30T09:47:49;10.05;;;4.80;;
9563;SDS011;4820;50.870;4.702;2024-01-30T09:50:15;11.05;;;5.95;;
9563;SDS011;4820;50.870;4.702;2024-01-30T09:52:45;11.55;;;5.72;;
9563;SDS011;4820;50.870;4.702;2024-01-30T09:55:11;8.30;;;5.38;;
9563;SDS011;4820;50.870;4.702;2024-01-30T09:57:37;10.40;;;5.68;;
9563;SDS011;4820;50.870;4.702;2024-01-30T10:00:05;8.23;;;5.07;;
9563;SDS011;4820;50.870;4.702;2024-01-30T10:02:34;8.68;;;6.07;;
9563;SDS011;4820;50.870;4.702;2024-01-30T10:05:00;8.45;;;5.15;;
9563;SDS011;4820;50.870;4.702;2024-01-30T10:07:26;9.25;;;5.45;;
9563;SDS011;4820;50.870;4.702;2024-01-30T10:09:55;20.92;;;9.82;;
9563;SDS011;4820;50.870;4.702;2024-01-30T10:12:22;8.80;;;6.03;;
9563;SDS011;4820;50.870;4.702;2024-01-30T10:14:48;10.50;;;6.13;;
9563;SDS011;4820;50.870;4.702;2024-01-30T10:17:14;8.18;;;5.53;;
9563;SDS011;4820;50.870;4.702;2024-01-30T10:19:40;8.35;;;5.60;;
9563;SDS011;4820;50.870;4.702;2024-01-30T10:22:07;8.40;;;5.50;;
9563;SDS011;4820;50.870;4.702;2024-01-30T10:24:34;8.73;;;6.15;;
9563;SDS011;4820;50.870;4.702;2024-01-30T10:27:00;8.63;;;5.80;;
9563;SDS011;4820;50.870;4.702;2024-01-30T10:29:26;11.73;;;5.85;;
9563;SDS011;4820;50.870;4.702;2024-01-30T10:32:00;8.15;;;6.10;;
9563;SDS011;4820;50.870;4.702;2024-01-30T10:34:28;10.20;;;6.20;;
9563;SDS011;4820;50.870;4.702;2024-01-30T10:37:06;8.18;;;6.55;;
9563;SDS011;4820;50.870;4.702;2024-01-30T10:39:38;11.50;;;6.70;;
9563;SDS011;4820;50.870;4.702;2024-01-30T10:42:05;10.88;;;7.20;;
9563;SDS011;4820;50.870;4.702;2024-01-30T10:44:43;9.35;;;6.45;;
9563;SDS011;4820;50.870;4.702;2024-01-30T10:47:29;10.23;;;6.93;;
9563;SDS011;4820;50.870;4.702;2024-01-30T10:49:59;9.73;;;6.90;;
9563;SDS011;4820;50.870;4.702;2024-01-30T10:52:25;12.13;;;7.57;;
9563;SDS011;4820;50.870;4.702;2024-01-30T10:54:51;12.85;;;8.13;;
9563;SDS011;4820;50.870;4.702;2024-01-30T10:57:19;10.93;;;7.10;;
9563;SDS011;4820;50.870;4.702;2024-01-30T10:59:47;12.23;;;7.88;;
9563;SDS011;4820;50.870;4.702;2024-01-30T11:02:14;11.60;;;7.90;;
9563;SDS011;4820;50.870;4.702;2024-01-30T11:04:41;12.43;;;7.03;;
9563;SDS011;4820;50.870;4.702;2024-01-30T11:07:16;11.38;;;6.72;;
9563;SDS011;4820;50.870;4.702;2024-01-30T11:12:40;10.00;;;5.97;;
9563;SDS011;4820;50.870;4.702;2024-01-30T11:15:09;13.75;;;5.88;;
9563;SDS011;4820;50.870;4.702;2024-01-30T11:17:44;8.80;;;5.63;;
9563;SDS011;4820;50.870;4.702;2024-01-30T11:20:16;9.88;;;5.28;;
9563;SDS011;4820;50.870;4.702;2024-01-30T11:22:46;11.05;;;5.65;;
9563;SDS011;4820;50.870;4.702;2024-01-30T11:25:13;14.00;;;7.80;;
9563;SDS011;4820;50.870;4.702;2024-01-30T11:27:44;8.95;;;4.72;;
9563;SDS011;4820;50.870;4.702;2024-01-30T11:30:10;7.93;;;4.82;;
9563;SDS011;4820;50.870;4.702;2024-01-30T11:32:45;8.93;;;4.88;;
9563;SDS011;4820;50.870;4.702;2024-01-30T11:35:13;11.60;;;5.00;;
9563;SDS011;4820;50.870;4.702;2024-01-30T11:37:39;10.60;;;4.90;;
9563;SDS011;4820;50.870;4.702;2024-01-30T11:40:05;9.02;;;4.43;;
9563;SDS011;4820;50.870;4.702;2024-01-30T11:42:32;5.85;;;3.65;;
9563;SDS011;4820;50.870;4.702;2024-01-30T11:45:00;7.32;;;4.35;;
9563;SDS011;4820;50.870;4.702;2024-01-30T11:47:27;7.95;;;3.97;;
9563;SDS011;4820;50.870;4.702;2024-01-30T11:49:53;6.60;;;3.90;;
9563;SDS011;4820;50.870;4.702;2024-01-30T11:52:19;6.60;;;3.70;;
9563;SDS011;4820;50.870;4.702;2024-01-30T11:54:45;7.32;;;2.90;;
9563;SDS011;4820;50.870;4.702;2024-01-30T11:57:11;6.22;;;3.00;;
9563;SDS011;4820;50.870;4.702;2024-01-30T11:59:36;4.63;;;2.50;;
9563;SDS011;4820;50.870;4.702;2024-01-30T12:02:02;6.38;;;2.30;;
9563;SDS011;4820;50.870;4.702;2024-01-30T12:04:28;4.80;;;2.20;;
9563;SDS011;4820;50.870;4.702;2024-01-30T12:06:54;5.60;;;2.00;;
9563;SDS011;4820;50.870;4.702;2024-01-30T12:09:20;3.30;;;1.85;;
9563;SDS011;4820;50.870;4.702;2024-01-30T12:11:47;3.75;;;2.10;;
9563;SDS011;4820;50.870;4.702;2024-01-30T12:14:14;3.33;;;1.60;;
9563;SDS011;4820;50.870;4.702;2024-01-30T12:16:41;3.60;;;1.70;;
9563;SDS011;4820;50.870;4.702;2024-01-30T12:19:07;4.03;;;1.70;;
9563;SDS011;4820;50.870;4.702;2024-01-30T12:21:33;3.85;;;1.80;;
9563;SDS011;4820;50.870;4.702;2024-01-30T12:23:59;3.72;;;1.42;;
9563;SDS011;4820;50.870;4.702;2024-01-30T12:26:25;4.55;;;1.27;;
9563;SDS011;4820;50.870;4.702;2024-01-30T12:28:54;3.78;;;1.38;;
9563;SDS011;4820;50.870;4.702;2024-01-30T12:31:31;4.60;;;1.45;;
9563;SDS011;4820;50.870;4.702;2024-01-30T12:33:59;4.38;;;1.30;;
9563;SDS011;4820;50.870;4.702;2024-01-30T12:36:25;7.60;;;1.80;;
9563;SDS011;4820;50.870;4.702;2024-01-30T12:38:51;3.63;;;1.20;;
9563;SDS011;4820;50.870;4.702;2024-01-30T12:41:17;2.38;;;1.08;;
9563;SDS011;4820;50.870;4.702;2024-01-30T12:43:43;1.80;;;1.10;;
9563;SDS011;4820;50.870;4.702;2024-01-30T12:46:09;3.25;;;1.20;;
9563;SDS011;4820;50.870;4.702;2024-01-30T12:48:35;2.75;;;1.27;;
9563;SDS011;4820;50.870;4.702;2024-01-30T12:51:01;2.10;;;0.88;;
9563;SDS011;4820;50.870;4.702;2024-01-30T12:53:27;2.63;;;1.10;;
9563;SDS011;4820;50.870;4.702;2024-01-30T12:55:53;5.03;;;1.20;;
9563;SDS011;4820;50.870;4.702;2024-01-30T12:58:20;5.07;;;1.20;;
9563;SDS011;4820;50.870;4.702;2024-01-30T13:00:47;3.03;;;1.15;;
9563;SDS011;4820;50.870;4.702;2024-01-30T13:03:12;1.58;;;1.00;;
9563;SDS011;4820;50.870;4.702;2024-01-30T13:05:38;1.58;;;0.90;;
9563;SDS011;4820;50.870;4.702;2024-01-30T13:08:04;2.80;;;1.00;;
9563;SDS011;4820;50.870;4.702;2024-01-30T13:10:31;1.70;;;1.20;;
9563;SDS011;4820;50.870;4.702;2024-01-30T13:12:56;1.30;;;0.90;;
9563;SDS011;4820;50.870;4.702;2024-01-30T13:15:22;1.80;;;1.38;;
9563;SDS011;4820;50.870;4.702;2024-01-30T13:17:48;5.00;;;1.45;;
9563;SDS011;4820;50.870;4.702;2024-01-30T13:20:15;1.88;;;1.23;;
9563;SDS011;4820;50.870;4.702;2024-01-30T13:22:44;2.28;;;0.85;;
9563;SDS011;4820;50.870;4.702;2024-01-30T13:25:10;5.47;;;1.27;;
9563;SDS011;4820;50.870;4.702;2024-01-30T13:27:36;3.63;;;1.08;;
9563;SDS011;4820;50.870;4.702;2024-01-30T13:30:02;2.42;;;0.82;;
9563;SDS011;4820;50.870;4.702;2024-01-30T13:32:29;2.05;;;1.02;;
9563;SDS011;4820;50.870;4.702;2024-01-30T13:34:54;2.90;;;0.90;;
9563;SDS011;4820;50.870;4.702;2024-01-30T13:37:22;4.03;;;1.05;;
9563;SDS011;4820;50.870;4.702;2024-01-30T13:39:48;1.30;;;0.90;;
9563;SDS011;4820;50.870;4.702;2024-01-30T13:42:13;3.30;;;1.02;;
9563;SDS011;4820;50.870;4.702;2024-01-30T13:44:39;3.25;;;1.00;;
9563;SDS011;4820;50.870;4.702;2024-01-30T13:47:05;6.32;;;1.30;;
9563;SDS011;4820;50.870;4.702;2024-01-30T13:49:30;3.53;;;1.23;;
9563;SDS011;4820;50.870;4.702;2024-01-30T13:51:57;5.85;;;1.13;;
9563;SDS011;4820;50.870;4.702;2024-01-30T13:54:23;4.20;;;1.10;;
9563;SDS011;4820;50.870;4.702;2024-01-30T13:56:49;3.28;;;1.13;;
9563;SDS011;4820;50.870;4.702;2024-01-30T13:59:15;4.70;;;1.10;;
9563;SDS011;4820;50.870;4.702;2024-01-30T14:01:41;2.40;;;1.00;;
9563;SDS011;4820;50.870;4.702;2024-01-30T14:04:07;3.38;;;1.40;;
9563;SDS011;4820;50.870;4.702;2024-01-30T14:06:32;2.78;;;1.10;;
9563;SDS011;4820;50.870;4.702;2024-01-30T14:08:58;3.60;;;1.40;;
9563;SDS011;4820;50.870;4.702;2024-01-30T14:11:24;3.58;;;1.00;;
9563;SDS011;4820;50.870;4.702;2024-01-30T14:13:49;3.13;;;1.13;;
9563;SDS011;4820;50.870;4.702;2024-01-30T14:16:15;3.80;;;1.38;;
9563;SDS011;4820;50.870;4.702;2024-01-30T14:18:41;5.38;;;1.20;;
9563;SDS011;4820;50.870;4.702;2024-01-30T14:21:07;2.70;;;1.08;;
9563;SDS011;4820;50.870;4.702;2024-01-30T14:23:33;4.78;;;1.48;;
9563;SDS011;4820;50.870;4.702;2024-01-30T14:25:59;6.97;;;1.70;;
9563;SDS011;4820;50.870;4.702;2024-01-30T14:28:26;8.05;;;1.50;;
9563;SDS011;4820;50.870;4.702;2024-01-30T14:30:52;5.57;;;1.30;;
9563;SDS011;4820;50.870;4.702;2024-01-30T14:33:17;5.97;;;1.60;;
9563;SDS011;4820;50.870;4.702;2024-01-30T14:35:43;6.35;;;1.35;;
9563;SDS011;4820;50.870;4.702;2024-01-30T14:38:09;3.88;;;1.27;;
9563;SDS011;4820;50.870;4.702;2024-01-30T14:40:34;4.72;;;1.52;;
9563;SDS011;4820;50.870;4.702;2024-01-30T14:43:00;3.40;;;1.30;;
9563;SDS011;4820;50.870;4.702;2024-01-30T14:45:26;5.03;;;1.30;;
9563;SDS011;4820;50.870;4.702;2024-01-30T14:47:52;2.22;;;1.10;;
9563;SDS011;4820;50.870;4.702;2024-01-30T14:50:17;2.25;;;1.08;;
9563;SDS011;4820;50.870;4.702;2024-01-30T14:52:43;5.10;;;1.38;;
9563;SDS011;4820;50.870;4.702;2024-01-30T14:55:09;4.30;;;1.38;;
9563;SDS011;4820;50.870;4.702;2024-01-30T14:57:35;3.40;;;1.30;;
9563;SDS011;4820;50.870;4.702;2024-01-30T15:00:04;2.97;;;1.05;;
9563;SDS011;4820;50.870;4.702;2024-01-30T15:02:31;2.35;;;1.10;;
9563;SDS011;4820;50.870;4.702;2024-01-30T15:04:57;3.83;;;0.90;;
9563;SDS011;4820;50.870;4.702;2024-01-30T15:07:23;2.28;;;1.10;;
9563;SDS011;4820;50.870;4.702;2024-01-30T15:09:49;3.08;;;1.08;;
9563;SDS011;4820;50.870;4.702;2024-01-30T15:12:14;3.25;;;1.30;;
9563;SDS011;4820;50.870;4.702;2024-01-30T15:14:40;3.33;;;1.00;;
9563;SDS011;4820;50.870;4.702;2024-01-30T15:17:05;4.28;;;1.17;;
9563;SDS011;4820;50.870;4.702;2024-01-30T15:19:31;3.70;;;1.20;;